EXS29 LGSK-EGPF
Flight info
| Callsign | EXS29 |
|---|---|
| Flight time | N/A |
| Altitude | 34000 |
| Route | LGSK/01 IBIDI1E IBIDI UL617 AGISA DCT TALAS DCT MODRA DCT LURID DCT VAMET DCT ESEGA DCT ANELA L604 RELBI L602 RKN L980 TENLI L602 EMLON M79 TENDO DCT AGPED AGPED1G EGPF/23 |
| Aircraft | A321/M-V/N |
Departure
| Time | 2026-04-16 13:11 |
|---|---|
| Airport | Skiathos Island National Airport (LGSK) |
Arrival
| Time | N/A |
|---|---|
| Airport | Glasgow Airport (EGPF) |
| Time | Latitude | Longitude | Altitude | Speed | Heading |
|---|---|---|---|---|---|
| 2026-04-16 13:00 | 39.17991 | 23.50263 | 57 ft | 0 kts | 287° |
| 2026-04-16 13:05 | 39.17988 | 23.50279 | 52 ft | 4 kts | 287° |
| 2026-04-16 13:05 | 39.17980 | 23.50312 | 48 ft | 4 kts | 287° |
| 2026-04-16 13:05 | 39.17972 | 23.50345 | 45 ft | 4 kts | 287° |
| 2026-04-16 13:06 | 39.17966 | 23.50371 | 42 ft | 3 kts | 287° |
| 2026-04-16 13:08 | 39.17940 | 23.50344 | 42 ft | 16 kts | 195° |
| 2026-04-16 13:08 | 39.17799 | 23.50287 | 41 ft | 22 kts | 199° |
| 2026-04-16 13:08 | 39.17665 | 23.50322 | 40 ft | 18 kts | 173° |
| 2026-04-16 13:08 | 39.17541 | 23.50277 | 35 ft | 19 kts | 199° |
| 2026-04-16 13:09 | 39.17397 | 23.50215 | 31 ft | 26 kts | 199° |
| 2026-04-16 13:09 | 39.17222 | 23.50137 | 22 ft | 19 kts | 199° |
| 2026-04-16 13:09 | 39.17101 | 23.50091 | 20 ft | 17 kts | 188° |
| 2026-04-16 13:09 | 39.17026 | 23.50086 | 17 ft | 10 kts | 211° |
| 2026-04-16 13:10 | 39.17033 | 23.50062 | 17 ft | 4 kts | 349° |
| 2026-04-16 13:10 | 39.17057 | 23.50069 | 18 ft | 4 kts | 18° |
| 2026-04-16 13:10 | 39.17094 | 23.50086 | 19 ft | 32 kts | 21° |
| 2026-04-16 13:10 | 39.17577 | 23.50300 | 34 ft | 110 kts | 18° |
| 2026-04-16 13:11 | 39.18480 | 23.50695 | 226 ft | 153 kts | 16° |
| 2026-04-16 13:11 | 39.19502 | 23.51185 | 910 ft | 156 kts | 17° |
| 2026-04-16 13:11 | 39.20519 | 23.51647 | 1788 ft | 155 kts | 18° |
| 2026-04-16 13:11 | 39.21521 | 23.52091 | 2358 ft | 154 kts | 20° |
| 2026-04-16 13:12 | 39.22605 | 23.52570 | 2520 ft | 176 kts | 20° |
| 2026-04-16 13:12 | 39.23839 | 23.53119 | 2697 ft | 199 kts | 20° |
| 2026-04-16 13:12 | 39.25161 | 23.53707 | 3278 ft | 200 kts | 21° |
| 2026-04-16 13:12 | 39.26477 | 23.54289 | 3905 ft | 200 kts | 22° |
| 2026-04-16 13:13 | 39.27677 | 23.55166 | 4425 ft | 201 kts | 47° |
| 2026-04-16 13:13 | 39.28455 | 23.56684 | 4850 ft | 207 kts | 72° |
| 2026-04-16 13:13 | 39.28674 | 23.58510 | 5414 ft | 205 kts | 79° |
| 2026-04-16 13:13 | 39.29219 | 23.60190 | 5850 ft | 214 kts | 52° |
| 2026-04-16 13:14 | 39.30482 | 23.61452 | 5964 ft | 244 kts | 22° |
| 2026-04-16 13:14 | 39.32250 | 23.61564 | 6180 ft | 273 kts | 346° |
| 2026-04-16 13:14 | 39.33953 | 23.60353 | 6642 ft | 287 kts | 324° |
| 2026-04-16 13:14 | 39.35447 | 23.58653 | 7215 ft | 293 kts | 317° |
| 2026-04-16 13:15 | 39.36927 | 23.56838 | 7848 ft | 295 kts | 320° |
| 2026-04-16 13:15 | 39.38511 | 23.55146 | 8516 ft | 297 kts | 322° |
| 2026-04-16 13:15 | 39.40142 | 23.53496 | 9162 ft | 299 kts | 323° |
| 2026-04-16 13:15 | 39.41800 | 23.51849 | 9804 ft | 301 kts | 323° |
| 2026-04-16 13:16 | 39.43476 | 23.50184 | 10275 ft | 311 kts | 322° |
| 2026-04-16 13:16 | 39.45244 | 23.48414 | 10390 ft | 331 kts | 322° |
| 2026-04-16 13:16 | 39.47102 | 23.46537 | 10637 ft | 345 kts | 322° |
| 2026-04-16 13:16 | 39.49003 | 23.44603 | 11167 ft | 350 kts | 322° |
| 2026-04-16 13:17 | 39.50920 | 23.42645 | 11779 ft | 352 kts | 322° |
| 2026-04-16 13:17 | 39.52845 | 23.40676 | 12379 ft | 355 kts | 322° |
| 2026-04-16 13:17 | 39.54796 | 23.38678 | 12929 ft | 359 kts | 322° |
| 2026-04-16 13:17 | 39.56762 | 23.36666 | 13584 ft | 359 kts | 322° |
| 2026-04-16 13:18 | 39.58727 | 23.34652 | 14145 ft | 362 kts | 322° |
| 2026-04-16 13:18 | 39.60712 | 23.32617 | 14648 ft | 365 kts | 322° |
| 2026-04-16 13:18 | 39.62714 | 23.30563 | 15121 ft | 369 kts | 321° |
| 2026-04-16 13:18 | 39.64740 | 23.28483 | 15625 ft | 372 kts | 321° |
| 2026-04-16 13:19 | 39.66774 | 23.26392 | 16167 ft | 374 kts | 321° |
| 2026-04-16 13:19 | 39.68819 | 23.24287 | 16685 ft | 376 kts | 321° |
| 2026-04-16 13:19 | 39.70880 | 23.22162 | 17168 ft | 380 kts | 321° |
| 2026-04-16 13:19 | 39.72959 | 23.20019 | 17667 ft | 383 kts | 321° |
| 2026-04-16 13:20 | 39.75046 | 23.17866 | 18158 ft | 385 kts | 320° |
| 2026-04-16 13:20 | 39.77155 | 23.15692 | 18601 ft | 388 kts | 320° |
| 2026-04-16 13:20 | 39.79250 | 23.13529 | 19010 ft | 391 kts | 320° |
| 2026-04-16 13:20 | 39.81408 | 23.11293 | 19433 ft | 393 kts | 320° |
| 2026-04-16 13:21 | 39.83529 | 23.09098 | 19805 ft | 396 kts | 321° |
| 2026-04-16 13:21 | 39.85688 | 23.06862 | 20225 ft | 398 kts | 321° |
| 2026-04-16 13:21 | 39.87867 | 23.04604 | 20636 ft | 400 kts | 321° |
| 2026-04-16 13:21 | 39.90045 | 23.02346 | 21039 ft | 402 kts | 321° |
| 2026-04-16 13:22 | 39.92237 | 23.00070 | 21442 ft | 404 kts | 321° |
| 2026-04-16 13:22 | 39.94439 | 22.97784 | 21835 ft | 406 kts | 321° |
| 2026-04-16 13:22 | 39.96652 | 22.95484 | 22244 ft | 408 kts | 321° |
| 2026-04-16 13:22 | 39.98873 | 22.93176 | 22636 ft | 410 kts | 321° |
| 2026-04-16 13:23 | 40.01112 | 22.90851 | 23025 ft | 412 kts | 321° |
| 2026-04-16 13:23 | 40.03357 | 22.88510 | 23405 ft | 414 kts | 321° |
| 2026-04-16 13:23 | 40.05611 | 22.86156 | 23757 ft | 416 kts | 321° |
| 2026-04-16 13:23 | 40.07873 | 22.83791 | 24063 ft | 418 kts | 321° |
| 2026-04-16 13:24 | 40.10151 | 22.81406 | 24366 ft | 419 kts | 321° |
| 2026-04-16 13:24 | 40.12427 | 22.79019 | 24710 ft | 420 kts | 321° |
| 2026-04-16 13:24 | 40.14713 | 22.76618 | 25001 ft | 423 kts | 321° |
| 2026-04-16 13:24 | 40.17008 | 22.74205 | 25286 ft | 425 kts | 321° |
| 2026-04-16 13:25 | 40.19323 | 22.71776 | 25567 ft | 427 kts | 321° |
| 2026-04-16 13:25 | 40.21619 | 22.69369 | 25858 ft | 429 kts | 321° |
| 2026-04-16 13:25 | 40.23951 | 22.66924 | 26144 ft | 431 kts | 321° |
| 2026-04-16 13:25 | 40.26296 | 22.64464 | 26422 ft | 433 kts | 321° |
| 2026-04-16 13:26 | 40.28654 | 22.61990 | 26699 ft | 435 kts | 320° |
| 2026-04-16 13:26 | 40.31020 | 22.59502 | 26978 ft | 437 kts | 320° |
| 2026-04-16 13:26 | 40.33393 | 22.57000 | 27251 ft | 439 kts | 320° |
| 2026-04-16 13:26 | 40.35778 | 22.54482 | 27516 ft | 441 kts | 320° |
| 2026-04-16 13:27 | 40.38150 | 22.51974 | 27805 ft | 442 kts | 320° |
| 2026-04-16 13:27 | 40.40541 | 22.49443 | 28073 ft | 444 kts | 320° |
| 2026-04-16 13:27 | 40.42948 | 22.46893 | 28334 ft | 446 kts | 320° |
| 2026-04-16 13:27 | 40.45366 | 22.44328 | 28581 ft | 448 kts | 320° |
| 2026-04-16 13:28 | 40.47798 | 22.41741 | 28803 ft | 451 kts | 320° |
| 2026-04-16 13:28 | 40.50237 | 22.39144 | 29033 ft | 453 kts | 320° |
| 2026-04-16 13:28 | 40.52694 | 22.36530 | 29269 ft | 455 kts | 320° |
| 2026-04-16 13:28 | 40.55155 | 22.33914 | 29509 ft | 456 kts | 320° |
| 2026-04-16 13:29 | 40.57630 | 22.31283 | 29739 ft | 458 kts | 319° |
| 2026-04-16 13:29 | 40.60110 | 22.28642 | 29958 ft | 459 kts | 319° |
| 2026-04-16 13:29 | 40.62600 | 22.25986 | 30171 ft | 461 kts | 319° |
| 2026-04-16 13:29 | 40.65095 | 22.23322 | 30363 ft | 463 kts | 319° |
| 2026-04-16 13:30 | 40.67602 | 22.20646 | 30557 ft | 464 kts | 319° |
| 2026-04-16 13:30 | 40.70078 | 22.17999 | 30751 ft | 466 kts | 319° |
| 2026-04-16 13:30 | 40.72603 | 22.15296 | 30949 ft | 467 kts | 319° |
| 2026-04-16 13:30 | 40.75125 | 22.12591 | 31214 ft | 467 kts | 319° |
| 2026-04-16 13:31 | 40.77644 | 22.09883 | 31451 ft | 468 kts | 319° |
| 2026-04-16 13:31 | 40.80169 | 22.07165 | 31702 ft | 468 kts | 319° |
| 2026-04-16 13:31 | 40.82689 | 22.04449 | 31981 ft | 468 kts | 319° |
| 2026-04-16 13:31 | 40.85213 | 22.01725 | 32257 ft | 468 kts | 319° |
| 2026-04-16 13:32 | 40.87731 | 21.99007 | 32537 ft | 467 kts | 319° |
| 2026-04-16 13:32 | 40.90240 | 21.96302 | 32877 ft | 465 kts | 319° |
| 2026-04-16 13:32 | 40.92744 | 21.93603 | 33175 ft | 464 kts | 319° |
| 2026-04-16 13:32 | 40.95241 | 21.90906 | 33451 ft | 463 kts | 318° |
| 2026-04-16 13:33 | 40.97732 | 21.88213 | 33710 ft | 463 kts | 319° |
| 2026-04-16 13:33 | 41.00225 | 21.85515 | 33967 ft | 462 kts | 318° |
| 2026-04-16 13:33 | 41.02716 | 21.82820 | 34094 ft | 460 kts | 318° |
| 2026-04-16 13:34 | 41.07587 | 21.77533 | 34127 ft | 449 kts | 318° |
| 2026-04-16 13:34 | 41.12401 | 21.72285 | 34109 ft | 447 kts | 318° |
| 2026-04-16 13:35 | 41.17192 | 21.67050 | 34132 ft | 445 kts | 318° |
| 2026-04-16 13:35 | 41.21970 | 21.61822 | 34121 ft | 445 kts | 318° |
| 2026-04-16 13:36 | 41.26755 | 21.56591 | 34132 ft | 445 kts | 318° |
| 2026-04-16 13:36 | 41.31498 | 21.51391 | 34112 ft | 445 kts | 318° |
| 2026-04-16 13:37 | 41.36268 | 21.46151 | 34113 ft | 445 kts | 318° |
| 2026-04-16 13:37 | 41.41034 | 21.40911 | 34138 ft | 444 kts | 318° |
| 2026-04-16 13:38 | 41.45795 | 21.35677 | 34137 ft | 443 kts | 318° |
| 2026-04-16 13:38 | 41.50534 | 21.30437 | 34139 ft | 442 kts | 318° |
| 2026-04-16 13:39 | 41.55264 | 21.25192 | 34131 ft | 442 kts | 318° |
| 2026-04-16 13:39 | 41.59991 | 21.19947 | 34126 ft | 441 kts | 318° |
| 2026-04-16 13:40 | 41.64711 | 21.14698 | 34133 ft | 441 kts | 317° |
| 2026-04-16 13:40 | 41.69421 | 21.09457 | 34147 ft | 439 kts | 317° |
| 2026-04-16 13:41 | 41.74107 | 21.04228 | 34146 ft | 438 kts | 317° |
| 2026-04-16 13:41 | 41.78772 | 20.99010 | 34138 ft | 437 kts | 317° |
| 2026-04-16 13:42 | 41.83431 | 20.93791 | 34135 ft | 436 kts | 317° |
| 2026-04-16 13:42 | 41.88083 | 20.88570 | 34123 ft | 436 kts | 317° |
| 2026-04-16 13:43 | 41.92697 | 20.83380 | 34147 ft | 435 kts | 317° |
| 2026-04-16 13:43 | 41.97323 | 20.78158 | 34154 ft | 433 kts | 317° |
| 2026-04-16 13:44 | 42.01189 | 20.73788 | 34156 ft | 432 kts | 317° |
| 2026-04-16 13:44 | 42.05790 | 20.68593 | 34142 ft | 431 kts | 317° |
| 2026-04-16 13:45 | 42.10357 | 20.63428 | 34144 ft | 431 kts | 317° |
| 2026-04-16 13:45 | 42.14936 | 20.58219 | 34146 ft | 431 kts | 317° |
| 2026-04-16 13:46 | 42.19504 | 20.53011 | 34158 ft | 429 kts | 317° |
| 2026-04-16 13:46 | 42.24057 | 20.47818 | 34156 ft | 428 kts | 317° |
| 2026-04-16 13:47 | 42.28607 | 20.42624 | 34135 ft | 428 kts | 317° |
| 2026-04-16 13:47 | 42.33143 | 20.37433 | 34132 ft | 428 kts | 317° |
| 2026-04-16 13:48 | 42.37681 | 20.32220 | 34127 ft | 428 kts | 317° |
| 2026-04-16 13:48 | 42.42213 | 20.27012 | 34137 ft | 427 kts | 317° |
| 2026-04-16 13:49 | 42.46739 | 20.21808 | 34139 ft | 426 kts | 317° |
| 2026-04-16 13:49 | 42.51224 | 20.16635 | 34140 ft | 426 kts | 317° |
| 2026-04-16 13:50 | 42.55738 | 20.11427 | 34145 ft | 426 kts | 317° |
| 2026-04-16 13:50 | 42.60248 | 20.06204 | 34134 ft | 426 kts | 317° |
| 2026-04-16 13:51 | 42.64747 | 20.00976 | 34141 ft | 426 kts | 317° |
| 2026-04-16 13:51 | 42.69240 | 19.95744 | 34138 ft | 425 kts | 317° |
| 2026-04-16 13:52 | 42.73731 | 19.90521 | 34130 ft | 424 kts | 317° |
| 2026-04-16 13:52 | 42.78216 | 19.85293 | 34129 ft | 424 kts | 317° |
| 2026-04-16 13:53 | 42.82688 | 19.80057 | 34127 ft | 424 kts | 317° |
| 2026-04-16 13:53 | 42.87157 | 19.74817 | 34114 ft | 424 kts | 317° |
| 2026-04-16 13:54 | 42.91588 | 19.69600 | 34119 ft | 423 kts | 317° |
| 2026-04-16 13:54 | 42.96046 | 19.64351 | 34115 ft | 423 kts | 317° |
| 2026-04-16 13:55 | 43.00513 | 19.59098 | 34110 ft | 424 kts | 320° |
| 2026-04-16 13:55 | 43.05282 | 19.54352 | 34112 ft | 424 kts | 323° |
| 2026-04-16 13:56 | 43.10066 | 19.49642 | 34118 ft | 424 kts | 322° |
| 2026-04-16 13:56 | 43.14850 | 19.44917 | 34118 ft | 424 kts | 322° |
| 2026-04-16 13:57 | 43.19632 | 19.40191 | 34116 ft | 424 kts | 322° |
| 2026-04-16 13:57 | 43.24412 | 19.35448 | 34114 ft | 424 kts | 322° |
| 2026-04-16 13:58 | 43.31571 | 19.28326 | 34120 ft | 424 kts | 322° |
| 2026-04-16 13:58 | 43.36351 | 19.23567 | 34126 ft | 423 kts | 322° |
| 2026-04-16 13:59 | 43.41117 | 19.18819 | 34127 ft | 423 kts | 323° |
| 2026-04-16 13:59 | 43.45872 | 19.14058 | 34127 ft | 422 kts | 322° |
| 2026-04-16 14:00 | 43.50625 | 19.09292 | 34117 ft | 423 kts | 322° |
| 2026-04-16 14:00 | 43.55371 | 19.04513 | 34130 ft | 422 kts | 322° |
| 2026-04-16 14:01 | 43.60086 | 18.99764 | 34132 ft | 422 kts | 322° |
| 2026-04-16 14:01 | 43.64824 | 18.94991 | 34139 ft | 421 kts | 322° |
| 2026-04-16 14:02 | 43.69546 | 18.90216 | 34144 ft | 420 kts | 321° |
| 2026-04-16 14:02 | 43.74261 | 18.85437 | 34146 ft | 420 kts | 322° |
| 2026-04-16 14:03 | 43.78974 | 18.80655 | 34144 ft | 420 kts | 321° |
| 2026-04-16 14:03 | 43.83684 | 18.75877 | 34146 ft | 419 kts | 322° |
| 2026-04-16 14:04 | 43.88387 | 18.71080 | 34140 ft | 419 kts | 321° |
| 2026-04-16 14:04 | 43.93061 | 18.66304 | 34132 ft | 420 kts | 323° |
| 2026-04-16 14:05 | 43.97776 | 18.61489 | 34128 ft | 421 kts | 323° |
| 2026-04-16 14:05 | 44.02496 | 18.56654 | 34134 ft | 422 kts | 322° |
| 2026-04-16 14:06 | 44.07223 | 18.51793 | 34127 ft | 423 kts | 323° |
| 2026-04-16 14:06 | 44.11969 | 18.46908 | 34124 ft | 425 kts | 324° |
| 2026-04-16 14:07 | 44.16730 | 18.41999 | 34125 ft | 427 kts | 323° |
| 2026-04-16 14:07 | 44.21510 | 18.37068 | 34136 ft | 428 kts | 323° |
| 2026-04-16 14:08 | 44.26295 | 18.32115 | 34138 ft | 428 kts | 323° |
| 2026-04-16 14:08 | 44.31047 | 18.27187 | 34134 ft | 429 kts | 325° |
| 2026-04-16 14:09 | 44.35850 | 18.22191 | 34132 ft | 431 kts | 325° |
| 2026-04-16 14:09 | 44.40674 | 18.17165 | 34136 ft | 433 kts | 325° |
| 2026-04-16 14:10 | 44.45514 | 18.12113 | 34137 ft | 435 kts | 325° |
| 2026-04-16 14:10 | 44.50361 | 18.07027 | 34145 ft | 435 kts | 325° |
| 2026-04-16 14:11 | 44.55218 | 18.01941 | 34142 ft | 436 kts | 326° |
| 2026-04-16 14:11 | 44.60086 | 17.96839 | 34137 ft | 438 kts | 326° |
| 2026-04-16 14:12 | 44.64964 | 17.91699 | 34149 ft | 439 kts | 325° |
| 2026-04-16 14:12 | 44.69841 | 17.86544 | 34153 ft | 439 kts | 325° |
| 2026-04-16 14:13 | 44.74724 | 17.81375 | 34151 ft | 439 kts | 325° |
| 2026-04-16 14:13 | 44.79606 | 17.76198 | 34152 ft | 439 kts | 325° |
| 2026-04-16 14:14 | 44.84484 | 17.71022 | 34163 ft | 439 kts | 324° |
| 2026-04-16 14:14 | 44.89314 | 17.65874 | 34165 ft | 438 kts | 324° |
| 2026-04-16 14:15 | 44.94171 | 17.60682 | 34179 ft | 437 kts | 324° |
| 2026-04-16 14:15 | 44.99022 | 17.55493 | 34185 ft | 437 kts | 324° |
| 2026-04-16 14:16 | 45.03871 | 17.50308 | 34175 ft | 436 kts | 324° |
| 2026-04-16 14:16 | 45.08705 | 17.45120 | 34189 ft | 435 kts | 324° |
| 2026-04-16 14:17 | 45.13513 | 17.39934 | 34193 ft | 434 kts | 323° |
| 2026-04-16 14:17 | 45.18165 | 17.34479 | 34180 ft | 434 kts | 320° |
| 2026-04-16 14:18 | 45.22678 | 17.28808 | 34179 ft | 433 kts | 319° |
| 2026-04-16 14:18 | 45.27189 | 17.23134 | 34179 ft | 433 kts | 320° |
| 2026-04-16 14:19 | 45.31717 | 17.17528 | 34193 ft | 431 kts | 320° |
| 2026-04-16 14:19 | 45.36243 | 17.11948 | 34194 ft | 430 kts | 320° |
| 2026-04-16 14:20 | 45.40757 | 17.06365 | 34191 ft | 429 kts | 320° |
| 2026-04-16 14:20 | 45.45250 | 17.00774 | 34188 ft | 429 kts | 320° |
| 2026-04-16 14:21 | 45.49734 | 16.95181 | 34179 ft | 428 kts | 320° |
| 2026-04-16 14:21 | 45.54207 | 16.89595 | 34200 ft | 427 kts | 320° |
| 2026-04-16 14:22 | 45.58663 | 16.84017 | 34204 ft | 425 kts | 320° |
| 2026-04-16 14:22 | 45.63108 | 16.78446 | 34173 ft | 425 kts | 319° |
| 2026-04-16 14:23 | 45.67519 | 16.72907 | 34184 ft | 424 kts | 319° |
| 2026-04-16 14:23 | 45.71952 | 16.67334 | 34172 ft | 425 kts | 319° |
| 2026-04-16 14:24 | 45.76383 | 16.61735 | 34192 ft | 424 kts | 319° |
| 2026-04-16 14:24 | 45.80797 | 16.56148 | 34207 ft | 423 kts | 319° |
| 2026-04-16 14:25 | 45.85199 | 16.50571 | 34200 ft | 422 kts | 319° |
| 2026-04-16 14:25 | 45.89583 | 16.45008 | 34206 ft | 420 kts | 319° |
| 2026-04-16 14:26 | 45.93960 | 16.39428 | 34197 ft | 420 kts | 319° |
| 2026-04-16 14:26 | 45.98325 | 16.33854 | 34179 ft | 420 kts | 318° |
| 2026-04-16 14:27 | 46.02691 | 16.28276 | 34205 ft | 419 kts | 318° |
| 2026-04-16 14:27 | 46.07045 | 16.22707 | 34208 ft | 418 kts | 318° |
| 2026-04-16 14:28 | 46.11352 | 16.17164 | 34198 ft | 418 kts | 318° |
| 2026-04-16 14:28 | 46.15692 | 16.11568 | 34210 ft | 418 kts | 317° |
| 2026-04-16 14:29 | 46.20021 | 16.05988 | 34199 ft | 417 kts | 317° |
| 2026-04-16 14:29 | 46.24341 | 16.00399 | 34191 ft | 417 kts | 317° |
| 2026-04-16 14:30 | 46.28660 | 15.94802 | 34193 ft | 417 kts | 317° |
| 2026-04-16 14:30 | 46.32974 | 15.89199 | 34194 ft | 417 kts | 317° |
| 2026-04-16 14:31 | 46.37281 | 15.83596 | 34197 ft | 416 kts | 317° |
| 2026-04-16 14:31 | 46.41591 | 15.77984 | 34220 ft | 416 kts | 317° |
| 2026-04-16 14:32 | 46.45893 | 15.72359 | 34210 ft | 416 kts | 317° |
| 2026-04-16 14:32 | 46.49463 | 15.67676 | 34212 ft | 416 kts | 317° |
| 2026-04-16 14:33 | 46.53757 | 15.62033 | 34214 ft | 416 kts | 316° |
| 2026-04-16 14:33 | 46.58748 | 15.55471 | 34203 ft | 416 kts | 316° |
| 2026-04-16 14:34 | 46.62336 | 15.50741 | 34206 ft | 416 kts | 316° |
| 2026-04-16 14:34 | 46.66619 | 15.45084 | 34212 ft | 416 kts | 316° |
| 2026-04-16 14:35 | 46.70894 | 15.39424 | 34196 ft | 415 kts | 316° |
| 2026-04-16 14:35 | 46.75133 | 15.33784 | 34197 ft | 415 kts | 316° |
| 2026-04-16 14:36 | 46.79395 | 15.28104 | 34207 ft | 415 kts | 315° |
| 2026-04-16 14:36 | 46.83670 | 15.22373 | 34219 ft | 414 kts | 315° |
| 2026-04-16 14:37 | 46.87901 | 15.16665 | 34220 ft | 414 kts | 315° |
| 2026-04-16 14:37 | 46.92133 | 15.10962 | 34214 ft | 414 kts | 315° |
| 2026-04-16 14:38 | 46.96335 | 15.05294 | 34205 ft | 413 kts | 315° |
| 2026-04-16 14:38 | 47.00551 | 14.99587 | 34201 ft | 413 kts | 315° |
| 2026-04-16 14:39 | 47.04763 | 14.93859 | 34205 ft | 413 kts | 314° |
| 2026-04-16 14:39 | 47.08969 | 14.88133 | 34213 ft | 412 kts | 314° |
| 2026-04-16 14:40 | 47.13162 | 14.82419 | 34230 ft | 411 kts | 314° |
| 2026-04-16 14:40 | 47.17353 | 14.76704 | 34222 ft | 411 kts | 314° |
| 2026-04-16 14:41 | 47.21533 | 14.70971 | 34221 ft | 411 kts | 314° |
| 2026-04-16 14:41 | 47.25702 | 14.65229 | 34221 ft | 410 kts | 314° |
| 2026-04-16 14:42 | 47.29871 | 14.59492 | 34221 ft | 410 kts | 313° |
| 2026-04-16 14:42 | 47.34019 | 14.53782 | 34220 ft | 410 kts | 313° |
| 2026-04-16 14:43 | 47.38182 | 14.48029 | 34218 ft | 410 kts | 313° |
| 2026-04-16 14:43 | 47.42343 | 14.42265 | 34217 ft | 409 kts | 313° |
| 2026-04-16 14:44 | 47.46493 | 14.36502 | 34215 ft | 409 kts | 313° |
| 2026-04-16 14:44 | 47.50634 | 14.30726 | 34225 ft | 409 kts | 313° |
| 2026-04-16 14:45 | 47.54772 | 14.24945 | 34233 ft | 409 kts | 313° |
| 2026-04-16 14:45 | 47.58914 | 14.19167 | 34229 ft | 409 kts | 313° |
| 2026-04-16 14:46 | 47.63054 | 14.13377 | 34231 ft | 409 kts | 313° |
| 2026-04-16 14:46 | 47.67156 | 14.07606 | 34228 ft | 408 kts | 313° |
| 2026-04-16 14:47 | 47.71277 | 14.01790 | 34236 ft | 408 kts | 313° |
| 2026-04-16 14:47 | 47.75394 | 13.95975 | 34237 ft | 408 kts | 313° |
| 2026-04-16 14:48 | 47.79510 | 13.90162 | 34239 ft | 408 kts | 313° |
| 2026-04-16 14:48 | 47.83623 | 13.84346 | 34261 ft | 408 kts | 313° |
| 2026-04-16 14:49 | 47.87723 | 13.78516 | 34261 ft | 407 kts | 312° |
| 2026-04-16 14:49 | 47.91816 | 13.72683 | 34261 ft | 407 kts | 312° |
| 2026-04-16 14:50 | 47.95903 | 13.66852 | 34268 ft | 407 kts | 312° |
| 2026-04-16 14:50 | 47.99985 | 13.61011 | 34267 ft | 406 kts | 312° |
| 2026-04-16 14:51 | 48.04056 | 13.55163 | 34268 ft | 406 kts | 312° |
| 2026-04-16 14:51 | 48.08122 | 13.49316 | 34253 ft | 405 kts | 312° |
| 2026-04-16 14:53 | 48.24315 | 13.25917 | 34272 ft | 404 kts | 312° |
| 2026-04-16 14:54 | 48.28349 | 13.20044 | 34261 ft | 404 kts | 312° |
| 2026-04-16 14:54 | 48.32460 | 13.14292 | 34268 ft | 405 kts | 315° |
| 2026-04-16 14:55 | 48.36785 | 13.08851 | 34283 ft | 405 kts | 317° |
| 2026-04-16 14:55 | 48.41128 | 13.03471 | 34276 ft | 404 kts | 316° |
| 2026-04-16 14:56 | 48.45418 | 12.98014 | 34270 ft | 403 kts | 316° |
| 2026-04-16 14:56 | 48.49666 | 12.92517 | 34268 ft | 402 kts | 316° |
| 2026-04-16 14:57 | 48.53909 | 12.87003 | 34264 ft | 402 kts | 316° |
| 2026-04-16 14:57 | 48.58118 | 12.81539 | 34264 ft | 402 kts | 316° |
| 2026-04-16 14:58 | 48.64481 | 12.73288 | 34274 ft | 401 kts | 316° |
| 2026-04-16 14:59 | 48.68711 | 12.67787 | 34268 ft | 401 kts | 316° |
| 2026-04-16 14:59 | 48.72940 | 12.62276 | 34262 ft | 401 kts | 316° |
| 2026-04-16 15:00 | 48.77158 | 12.56755 | 34258 ft | 401 kts | 315° |
| 2026-04-16 15:00 | 48.81379 | 12.51226 | 34252 ft | 401 kts | 316° |
| 2026-04-16 15:01 | 48.85594 | 12.45697 | 34272 ft | 400 kts | 315° |
| 2026-04-16 15:01 | 48.89792 | 12.40157 | 34269 ft | 400 kts | 315° |
| 2026-04-16 15:02 | 48.93990 | 12.34608 | 34268 ft | 399 kts | 316° |
| 2026-04-16 15:02 | 48.98177 | 12.29063 | 34266 ft | 398 kts | 316° |
| 2026-04-16 15:03 | 49.02351 | 12.23523 | 34264 ft | 398 kts | 316° |
| 2026-04-16 15:03 | 49.06525 | 12.17986 | 34253 ft | 397 kts | 316° |
| 2026-04-16 15:04 | 49.10688 | 12.12450 | 34242 ft | 397 kts | 316° |
| 2026-04-16 15:04 | 49.14835 | 12.06896 | 34256 ft | 396 kts | 316° |
| 2026-04-16 15:05 | 49.18973 | 12.01340 | 34261 ft | 395 kts | 316° |
| 2026-04-16 15:05 | 49.23092 | 11.95808 | 34274 ft | 393 kts | 316° |
| 2026-04-16 15:06 | 49.27183 | 11.90309 | 34267 ft | 391 kts | 316° |
| 2026-04-16 15:06 | 49.31267 | 11.84822 | 34267 ft | 389 kts | 316° |
| 2026-04-16 15:07 | 49.35328 | 11.79338 | 34261 ft | 389 kts | 316° |
| 2026-04-16 15:07 | 49.39377 | 11.73853 | 34259 ft | 388 kts | 316° |
| 2026-04-16 15:08 | 49.43423 | 11.68372 | 34248 ft | 388 kts | 316° |
| 2026-04-16 15:08 | 49.47456 | 11.62895 | 34257 ft | 386 kts | 316° |
| 2026-04-16 15:09 | 49.51437 | 11.57455 | 34256 ft | 384 kts | 316° |
| 2026-04-16 15:09 | 49.55429 | 11.51991 | 34259 ft | 383 kts | 316° |
| 2026-04-16 15:10 | 49.59410 | 11.46540 | 34257 ft | 382 kts | 316° |
| 2026-04-16 15:10 | 49.63384 | 11.41100 | 34283 ft | 382 kts | 316° |
| 2026-04-16 15:11 | 49.67348 | 11.35655 | 34280 ft | 381 kts | 316° |
| 2026-04-16 15:11 | 49.71294 | 11.30202 | 34270 ft | 380 kts | 315° |
| 2026-04-16 15:12 | 49.75228 | 11.24759 | 34267 ft | 379 kts | 315° |
| 2026-04-16 15:12 | 49.79070 | 11.19207 | 34258 ft | 377 kts | 313° |
| 2026-04-16 15:13 | 49.82689 | 11.13348 | 34253 ft | 376 kts | 311° |
| 2026-04-16 15:13 | 49.86265 | 11.07430 | 34249 ft | 376 kts | 311° |
| 2026-04-16 15:14 | 49.89871 | 11.01553 | 34266 ft | 376 kts | 311° |
| 2026-04-16 15:14 | 49.93488 | 10.95719 | 34260 ft | 375 kts | 311° |
| 2026-04-16 15:15 | 49.97093 | 10.89893 | 34260 ft | 374 kts | 311° |
| 2026-04-16 15:15 | 50.00686 | 10.84058 | 34258 ft | 373 kts | 311° |
| 2026-04-16 15:16 | 50.04240 | 10.78262 | 34251 ft | 372 kts | 311° |
| 2026-04-16 15:16 | 50.07805 | 10.72427 | 34238 ft | 372 kts | 311° |
| 2026-04-16 15:17 | 50.11369 | 10.66593 | 34234 ft | 372 kts | 311° |
| 2026-04-16 15:17 | 50.14934 | 10.60747 | 34230 ft | 372 kts | 311° |
| 2026-04-16 15:18 | 50.18491 | 10.54898 | 34262 ft | 371 kts | 310° |
| 2026-04-16 15:18 | 50.22042 | 10.49051 | 34240 ft | 371 kts | 310° |
| 2026-04-16 15:19 | 50.25620 | 10.43249 | 34249 ft | 371 kts | 311° |
| 2026-04-16 15:19 | 50.29226 | 10.37490 | 34230 ft | 370 kts | 311° |
| 2026-04-16 15:20 | 50.32216 | 10.32690 | 34221 ft | 370 kts | 311° |
| 2026-04-16 15:20 | 50.35782 | 10.26884 | 34219 ft | 369 kts | 309° |
| 2026-04-16 15:21 | 50.39143 | 10.20819 | 34206 ft | 369 kts | 309° |
| 2026-04-16 15:21 | 50.42658 | 10.14928 | 34203 ft | 371 kts | 310° |
| 2026-04-16 15:22 | 50.46233 | 10.09092 | 34232 ft | 370 kts | 310° |
| 2026-04-16 15:22 | 50.49726 | 10.03158 | 34227 ft | 370 kts | 309° |
| 2026-04-16 15:23 | 50.53187 | 9.97195 | 34223 ft | 370 kts | 309° |
| 2026-04-16 15:23 | 50.56584 | 9.91130 | 34220 ft | 368 kts | 307° |
| 2026-04-16 15:24 | 50.59833 | 9.84905 | 34218 ft | 368 kts | 306° |
| 2026-04-16 15:24 | 50.63068 | 9.78654 | 34216 ft | 368 kts | 306° |
| 2026-04-16 15:25 | 50.66324 | 9.72424 | 34211 ft | 368 kts | 306° |
| 2026-04-16 15:25 | 50.69588 | 9.66204 | 34208 ft | 368 kts | 306° |
| 2026-04-16 15:26 | 50.72831 | 9.60015 | 34208 ft | 368 kts | 306° |
| 2026-04-16 15:26 | 50.76094 | 9.53777 | 34205 ft | 368 kts | 306° |
| 2026-04-16 15:27 | 50.79348 | 9.47533 | 34204 ft | 368 kts | 306° |
| 2026-04-16 15:27 | 50.82604 | 9.41284 | 34205 ft | 368 kts | 306° |
| 2026-04-16 15:28 | 50.85859 | 9.35018 | 34209 ft | 368 kts | 306° |
| 2026-04-16 15:28 | 50.89106 | 9.28745 | 34215 ft | 369 kts | 306° |
| 2026-04-16 15:29 | 50.92357 | 9.22445 | 34219 ft | 369 kts | 306° |
| 2026-04-16 15:29 | 50.95585 | 9.16184 | 34221 ft | 369 kts | 306° |
| 2026-04-16 15:30 | 50.98851 | 9.09837 | 34246 ft | 369 kts | 306° |
| 2026-04-16 15:30 | 51.02068 | 9.03563 | 34243 ft | 368 kts | 306° |
| 2026-04-16 15:31 | 51.05293 | 8.97247 | 34236 ft | 368 kts | 306° |
| 2026-04-16 15:31 | 51.08521 | 8.90925 | 34228 ft | 368 kts | 306° |
| 2026-04-16 15:32 | 51.11738 | 8.84603 | 34220 ft | 367 kts | 306° |
| 2026-04-16 15:32 | 51.14948 | 8.78283 | 34213 ft | 367 kts | 306° |
| 2026-04-16 15:33 | 51.18159 | 8.71937 | 34207 ft | 367 kts | 305° |
| 2026-04-16 15:33 | 51.21359 | 8.65598 | 34205 ft | 367 kts | 306° |
| 2026-04-16 15:34 | 51.24565 | 8.59245 | 34204 ft | 367 kts | 306° |
| 2026-04-16 15:34 | 51.27762 | 8.52890 | 34223 ft | 367 kts | 306° |
| 2026-04-16 15:35 | 51.30949 | 8.46505 | 34213 ft | 367 kts | 306° |
| 2026-04-16 15:35 | 51.34136 | 8.40135 | 34211 ft | 367 kts | 306° |
| 2026-04-16 15:36 | 51.37345 | 8.33768 | 34207 ft | 367 kts | 306° |
| 2026-04-16 15:36 | 51.40535 | 8.27457 | 34209 ft | 367 kts | 306° |
| 2026-04-16 15:37 | 51.43740 | 8.21082 | 34208 ft | 367 kts | 306° |
| 2026-04-16 15:37 | 51.46930 | 8.14692 | 34220 ft | 367 kts | 306° |
| 2026-04-16 15:38 | 51.50116 | 8.08308 | 34228 ft | 366 kts | 306° |
| 2026-04-16 15:38 | 51.53293 | 8.01926 | 34228 ft | 366 kts | 306° |
| 2026-04-16 15:39 | 51.56467 | 7.95534 | 34255 ft | 365 kts | 306° |